Fruitvale (215) Station Data

Red Flag Warning: No
Fire Weather Zone: 250
SDGE Region: North East
Lat/Lon: 33.256/-116.982

Observations

Time Wind Speed/Gust Temp(F) RH Fuel Moist Fuel Temp(F) Dewpt(F) Tmax(F) Tmin(F) Accum Precip 10-min Precip SL Press(mb)
4/30 12:00am 86 3 G 5 64° 17% - - 18° 80.5° 59.6° - - -
4/29 11:50pm 123 3 G 4 64° 17% - - 18° 80.5° 59.6° - - -
4/29 11:40pm 121 3 G 5 64° 17% - - 18° 80.5° 59.6° - - -
4/29 11:30pm 121 4 G 5 64° 18% - - 20° 80.5° 59.6° - - -
4/29 11:20pm 129 3 G 5 64° 19% - - 21° 80.5° 59.6° - - -
4/29 11:10pm 150 3 G 4 64° 19% - - 21° 80.5° 59.6° - - -
4/29 11:00pm 164 4 G 5 64° 18% - - 20° 80.5° 59.6° - - -
4/29 10:50pm 150 5 G 7 64° 17% - - 19° 80.5° 59.6° - - -
4/29 10:40pm 138 5 G 7 64° 17% - - 19° 80.5° 59.6° - - -
4/29 10:30pm 138 5 G 9 64° 18% - - 20° 80.5° 59.6° - - -
4/29 10:20pm 147 6 G 9 64° 18% - - 20° 80.5° 59.6° - - -
4/29 10:10pm 153 5 G 8 64° 18% - - 20° 80.5° 59.6° - - -
4/29 10:00pm 156 5 G 9 64° 19% - - 20° 80.5° 59.6° - - -
4/29 9:50pm 153 5 G 8 63° 19% - - 21° 80.5° 59.6° - - -
4/29 9:40pm 165 4 G 6 63° 19% - - 20° 80.5° 59.6° - - -
4/29 9:30pm 162 4 G 6 64° 18% - - 20° 80.5° 59.6° - - -
4/29 9:20pm 139 5 G 8 66° 15% - - 17° 80.5° 59.6° - - -
4/29 9:10pm 149 4 G 5 66° 16% - - 18° 80.5° 59.6° - - -
4/29 9:00pm 118 4 G 5 66° 16% - - 18° 80.5° 59.6° - - -
4/29 8:50pm 107 4 G 6 66° 16% - - 19° 80.5° 59.6° - - -
4/29 8:40pm 125 3 G 4 66° 16% - - 19° 80.5° 59.6° - - -
4/29 8:30pm 142 2 G 3 66° 16% - - 19° 80.5° 59.6° - - -
4/29 8:20pm 203 1 G 2 66° 17% - - 20° 80.5° 59.6° - - -
4/29 8:10pm 145 1 G 2 66° 17% - - 20° 80.5° 59.6° - - -
4/29 8:00pm 240 1 G 2 66° 17% - - 20° 80.5° 59.6° - - -
4/29 7:50pm 256 3 G 5 66° 17% - - 20° 80.5° 59.6° - - -
4/29 7:40pm 252 5 G 5 67° 17% - - 20° 80.5° 59.6° - - -
4/29 7:30pm 258 6 G 8 67° 17% - - 20° 80.5° 59.6° - - -
4/29 7:20pm 244 7 G 9 67° 16% - - 20° 80.5° 59.6° - - -
4/29 7:10pm 242 7 G 10 68° 15% - - 19° 80.5° 59.6° - - -
4/29 7:00pm 243 7 G 10 69° 15% - - 19° 80.5° 59.6° - - -
4/29 6:50pm 251 9 G 12 69° 14% - - 18° 80.5° 59.6° - - -
4/29 6:40pm 262 9 G 12 69° 14% - - 18° 80.5° 59.6° - - -
4/29 6:30pm 263 9 G 12 70° 13% - - 18° 80.5° 59.6° - - -
4/29 6:20pm 271 11 G 15 70° 13% - - 17° 80.5° 59.6° - - -
4/29 6:10pm 273 11 G 15 70° 14% - - 18° 80.5° 59.6° - - -
4/29 6:00pm 268 11 G 15 71° 15% - - 21° 80.5° 59.6° - - -
4/29 5:50pm 267 9 G 13 72° 15% - - 21° 80.5° 59.6° - - -
4/29 5:40pm 267 9 G 13 73° 14% - - 20° 80.5° 59.6° - - -
4/29 5:30pm 258 10 G 14 73° 14% - - 20° 80.5° 59.6° - - -
4/29 5:20pm 267 10 G 15 73° 14% - - 21° 80.5° 59.6° - - -
4/29 5:10pm 269 10 G 13 74° 13% - - 20° 80.5° 59.6° - - -
4/29 5:00pm 275 10 G 13 74° 12% - - 19° 80.5° 59.6° - - -
4/29 4:50pm 271 10 G 14 75° 12% - - 19° 80.5° 59.6° - - -
4/29 4:40pm 264 10 G 16 75° 12% - - 18° 80.5° 59.6° - - -
4/29 4:30pm 263 9 G 14 75° 11% - - 18° 80.5° 59.6° - - -
4/29 4:20pm 251 9 G 16 75° 11% - - 17° 80.5° 59.6° - - -
4/29 4:10pm 250 11 G 15 76° 11% - - 17° 80.5° 59.6° - - -
4/29 4:00pm 267 12 G 17 76° 11% - - 17° 80.5° 59.6° - - -
4/29 3:50pm 260 13 G 19 77° 11% - - 17° 80.5° 59.6° - - -
4/29 3:40pm 256 12 G 19 77° 11% - - 18° 80.5° 59.6° - - -
4/29 3:30pm 240 10 G 15 77° 11% - - 17° 80.5° 59.6° - - -
4/29 3:20pm 249 10 G 15 76° 11% - - 18° 80.5° 59.6° - - -
4/29 3:10pm 248 13 G 20 76° 11% - - 18° 80.5° 59.6° - - -
4/29 3:00pm 243 14 G 20 76° 11% - - 19° 80.5° 59.6° - - -
4/29 2:50pm 263 9 G 19 78° 10% - - 16° 80.5° 59.6° - - -
4/29 2:40pm 309 3 G 7 79° 7% - - 10° 80.5° 59.6° - - -
4/29 2:30pm 283 4 G 10 78° 8% - - 12° 79.9° 59.6° - - -
4/29 2:20pm 287 4 G 10 79° 8% - - 11° 79.7° 59.6° - - -
4/29 2:10pm 283 5 G 10 78° 7% - - 10° 79.1° 59.6° - - -
4/29 2:00pm 274 5 G 12 77° 8% - - 10° 79.1° 59.6° - - -
4/29 1:50pm 246 7 G 14 77° 8% - - 11° 79.1° 59.6° - - -
4/29 1:40pm 255 4 G 17 78° 7% - - 10° 79.1° 59.6° - - -
4/29 1:30pm 88 4 G 11 78° 7% - - 10° 79° 59.6° - - -
4/29 1:20pm 71 4 G 9 77° 7% - - 10° 78.4° 59.6° - - -
4/29 1:10pm 85 5 G 9 77° 8% - - 10° 78° 59.6° - - -
4/29 1:00pm 205 7 G 16 75° 8% - - 10° 77.9° 59.6° - - -
4/29 12:50pm 230 7 G 14 75° 8% - - 10° 77.9° 59.6° - - -
4/29 12:40pm 230 5 G 16 77° 8% - - 12° 77.9° 59.6° - - -
4/29 12:30pm 157 6 G 10 75° 8% - - 76.3° 59.6° - - -
4/29 12:20pm 274 6 G 15 74° 8% - - 10° 75.7° 59.6° - - -
4/29 12:10pm 359 3 G 7 74° 8% - - 10° 75.7° 59.6° - - -
4/29 12:00pm 68 6 G 10 74° 8% - - 10° 75.7° 59.6° - - -
4/29 11:50am 98 7 G 13 75° 8% - - 10° 75.7° 59.6° - - -
4/29 11:40am 147 4 G 11 74° 8% - - 10° 75.5° 59.6° - - -
4/29 11:30am 105 8 G 15 74° 8% - - 11° 75.2° 59.6° - - -
4/29 11:20am 101 5 G 14 74° 8% - - 10° 75.1° 59.6° - - -
4/29 11:10am 60 6 G 12 73° 8% - - 75.1° 59.6° - - -
4/29 11:00am 100 7 G 11 74° 8% - - 10° 75.1° 59.6° - - -
4/29 10:50am 92 10 G 17 74° 8% - - 10° 75° 59.6° - - -
4/29 10:40am 95 9 G 14 74° 8% - - 10° 75° 59.6° - - -
4/29 10:30am 129 5 G 11 72° 9% - - 10° 74.1° 59.6° - - -
4/29 10:20am 115 7 G 11 72° 9% - - 10° 73° 59.6° - - -
4/29 10:10am 87 6 G 11 72° 9% - - 10° 72.8° 59.6° - - -
4/29 10:00am 103 9 G 16 71° 9% - - 11° 72.3° 59.6° - - -
4/29 9:50am 95 9 G 14 70° 10% - - 11° 70.8° 59.6° - - -
4/29 9:40am 97 8 G 14 70° 10% - - 12° 70.5° 59.6° - - -
4/29 9:30am 171 5 G 12 69° 11% - - 13° 69.5° 59.6° - - -
4/29 9:20am 203 3 G 8 69° 10% - - 10° 69.4° 59.6° - - -
4/29 9:10am 193 3 G 7 68° 12% - - 14° 69.2° 59.6° - - -
4/29 9:00am 166 4 G 7 68° 12% - - 13° 69.2° 59.6° - - -
4/29 8:50am 54 7 G 18 68° 10% - - 69.2° 59.6° - - -
4/29 8:40am 42 8 G 19 67° 11% - - 10° 67.8° 59.6° - - -
4/29 8:30am 68 4 G 11 66° 12% - - 12° 67.8° 59.6° - - -
4/29 8:20am 267 3 G 6 64° 17% - - 18° 67.8° 59.6° - - -
4/29 8:10am 74 5 G 9 65° 12% - - 12° 67.8° 59.6° - - -
4/29 8:00am 253 2 G 4 62° 15% - - 13° 67.8° 59.6° - - -
4/29 7:50am 253 3 G 5 62° 16% - - 16° 67.8° 59.6° - - -
4/29 7:40am 90 5 G 9 65° 12% - - 10° 67.8° 59.6° - - -
4/29 7:30am 276 3 G 9 63° 11% - - 67.8° 59.6° - - -
4/29 7:20am 244 4 G 7 61° 14% - - 12° 67.8° 59.6° - - -
4/29 7:10am 58 2 G 4 64° 11% - - 67.8° 59.6° - - -
4/29 7:00am 8 4 G 6 64° 11% - - 67.8° 59.6° - - -
4/29 6:50am 293 3 G 5 63° 11% - - 67.8° 59.6° - - -
4/29 6:40am 248 3 G 5 61° 12% - - 67.8° 59.6° - - -
4/29 6:30am 165 2 G 5 63° 10% - - 67.8° 59.6° - - -
4/29 6:20am 173 2 G 4 63° 10% - - 67.8° 59.6° - - -
4/29 6:10am 249 4 G 5 61° 12% - - 67.8° 59.6° - - -
4/29 6:00am 232 4 G 6 61° 12% - - 67.8° 59.6° - - -
4/29 5:50am 115 3 G 5 63° 10% - - 67.8° 62° - - -
4/29 5:40am 11 2 G 4 63° 11% - - 67.8° 62° - - -
4/29 5:30am 36 2 G 4 63° 11% - - 67.8° 62° - - -
4/29 5:20am 25 4 G 8 63° 11% - - 67.8° 62° - - -
4/29 5:10am 41 3 G 8 62° 11% - - 67.8° 62° - - -
4/29 5:00am 45 3 G 8 63° 11% - - 67.8° 62.4° - - -
4/29 4:50am 55 6 G 10 63° 11% - - 67.8° 62.7° - - -
4/29 4:40am 56 5 G 10 64° 11% - - 67.8° 63.1° - - -
4/29 4:30am 62 8 G 16 64° 11% - - 67.8° 63.6° - - -
4/29 4:20am 58 8 G 15 64° 11% - - 67.8° 63.6° - - -
4/29 4:10am 52 8 G 16 64° 11% - - 67.8° 63.6° - - -
4/29 4:00am 59 7 G 15 64° 11% - - 67.8° 63.6° - - -
4/29 3:50am 55 6 G 12 64° 11% - - 67.8° 63.7° - - -
4/29 3:40am 58 8 G 16 64° 11% - - 67.8° 63.9° - - -
4/29 3:30am 55 9 G 15 65° 11% - - 67.8° 63.9° - - -
4/29 3:20am 57 8 G 16 65° 11% - - 10° 67.8° 63.9° - - -
4/29 3:10am 40 10 G 22 65° 11% - - 10° 67.8° 63.9° - - -
4/29 3:00am 52 10 G 18 65° 12% - - 10° 67.8° 63.9° - - -
4/29 2:50am 58 9 G 17 65° 12% - - 11° 67.8° 63.9° - - -
4/29 2:40am 39 9 G 17 65° 12% - - 11° 67.8° 63.9° - - -
4/29 2:30am 32 10 G 20 65° 12% - - 12° 67.8° 63.9° - - -
4/29 2:20am 49 9 G 17 66° 12% - - 12° 67.8° 63.9° - - -
4/29 2:10am 42 9 G 16 65° 12% - - 12° 67.8° 63.9° - - -
4/29 2:00am 49 8 G 18 66° 12% - - 12° 67.8° 63.9° - - -
4/29 1:50am 52 7 G 16 65° 13% - - 13° 67.8° 63.9° - - -
4/29 1:40am 66 5 G 10 65° 14% - - 14° 67.8° 63.9° - - -
4/29 1:30am 51 4 G 10 65° 13% - - 14° 67.8° 64.6° - - -
4/29 1:20am 15 6 G 12 66° 14% - - 16° 67.8° 65.3° - - -
4/29 1:10am 3 6 G 9 66° 15% - - 16° 67.8° 65.3° - - -
4/29 1:00am 27 7 G 13 66° 13% - - 13° 67.8° 65.3° - - -
4/29 12:50am 37 11 G 17 67° 11% - - 11° 67.8° 65.3° - - -
4/29 12:40am 29 11 G 18 67° 11% - - 11° 67.8° 65.3° - - -
4/29 12:30am 30 8 G 15 67° 12% - - 12° 67.8° 65.3° - - -
4/29 12:20am 29 9 G 14 67° 12% - - 13° 67.2° 65.3° - - -
4/29 12:10am 36 6 G 14 66° 14% - - 15° 67.2° 65.3° - - -
4/29 12:00am 36 5 G 11 65° 18% - - 20° 73.4° 52.7° - - -
4/28 11:50pm 41 3 G 5 64° 32% - - 34° 73.4° 52.7° - - -
4/28 11:40pm 45 2 G 4 64° 35% - - 36° 73.4° 52.7° - - -
4/28 11:30pm 28 4 G 6 61° 41% - - 38° 73.4° 52.7° - - -
4/28 11:20pm 48 4 G 7 62° 40% - - 38° 73.4° 52.7° - - -
4/28 11:10pm 31 5 G 6 61° 43% - - 38° 73.4° 52.7° - - -
4/28 11:00pm 42 5 G 7 60° 44% - - 38° 73.4° 52.7° - - -
4/28 10:50pm 37 6 G 7 61° 43% - - 38° 73.4° 52.7° - - -
4/28 10:40pm 39 5 G 6 61° 42% - - 38° 73.4° 52.7° - - -
4/28 10:30pm 34 5 G 6 61° 41% - - 38° 73.4° 52.7° - - -
4/28 10:20pm 50 4 G 5 62° 41% - - 38° 73.4° 52.7° - - -
4/28 10:10pm 34 4 G 5 61° 41% - - 37° 73.4° 52.7° - - -
4/28 10:00pm 77 3 G 3 61° 41% - - 37° 73.4° 52.7° - - -
4/28 9:50pm 139 2 G 4 61° 41% - - 37° 73.4° 52.7° - - -
4/28 9:40pm 143 4 G 6 60° 41% - - 37° 73.4° 52.7° - - -
4/28 9:30pm 145 4 G 6 61° 41% - - 37° 73.4° 52.7° - - -
4/28 9:20pm 137 4 G 6 61° 41% - - 37° 73.4° 52.7° - - -
4/28 9:10pm 149 6 G 11 61° 40% - - 37° 73.4° 52.7° - - -
4/28 9:00pm 166 5 G 9 61° 42% - - 37° 73.4° 52.7° - - -
4/28 8:50pm 171 5 G 8 61° 42% - - 38° 73.4° 52.7° - - -
4/28 8:40pm 171 5 G 8 61° 43% - - 38° 73.4° 52.7° - - -
4/28 8:30pm 179 5 G 8 61° 44% - - 38° 73.4° 52.7° - - -
4/28 8:20pm 185 5 G 9 61° 43% - - 38° 73.4° 52.7° - - -
4/28 8:10pm 199 3 G 7 62° 42% - - 38° 73.4° 52.7° - - -
4/28 8:00pm 204 3 G 5 61° 42% - - 38° 73.4° 52.7° - - -
4/28 7:50pm 188 3 G 6 62° 42% - - 38° 73.4° 52.7° - - -
4/28 7:40pm 171 4 G 9 62° 41% - - 38° 73.4° 52.7° - - -
4/28 7:30pm 224 5 G 7 63° 39% - - 38° 73.4° 52.7° - - -
4/28 7:20pm 236 6 G 8 64° 38% - - 37° 73.4° 52.7° - - -
4/28 7:10pm 249 6 G 7 64° 35% - - 36° 73.4° 52.7° - - -
4/28 7:00pm 247 6 G 8 65° 33% - - 35° 73.4° 52.7° - - -
4/28 6:50pm 246 6 G 8 66° 33% - - 35° 73.4° 52.7° - - -
4/28 6:40pm 241 6 G 8 66° 32% - - 36° 73.4° 52.7° - - -
4/28 6:30pm 245 6 G 9 66° 32% - - 35° 73.4° 52.7° - - -
4/28 6:20pm 246 6 G 10 67° 31% - - 35° 73.4° 52.7° - - -
4/28 6:10pm 253 7 G 11 67° 31% - - 35° 73.4° 52.7° - - -
4/28 6:00pm 252 8 G 11 68° 31% - - 36° 73.4° 52.7° - - -